Time;durP1;ratioP1;P1;durP2;ratioP2;P2;SDS_P1;SDS_P2;PMS_P1;PMS_P2;Temp;Humidity;BMP_temperature;BMP_pressure;BME280_temperature;BME280_humidity;BME280_pressure;Samples;Min_cycle;Max_cycle;Signal;HPM_P1;HPM_P2
2021/12/08 00:02:08;;;;;;;3.10;2.00;;;;;;;3.12;100.00;98661.38;5134616;27;20031;-62
2021/12/08 00:04:34;;;;;;;4.30;2.50;;;;;;;3.08;100.00;98663.44;5136067;27;20027;-62
2021/12/08 00:07:00;;;;;;;3.07;2.03;;;;;;;3.13;100.00;98663.03;5135700;27;20034;-65
2021/12/08 00:09:45;;;;;;;3.50;2.13;;;;;;;3.16;100.00;98665.38;5134738;28;20307;-63
2021/12/08 00:14:56;;;;;;;4.28;2.25;;;;;;;3.06;100.00;98675.00;5141722;28;20038;-62
2021/12/08 00:17:21;;;;;;;2.90;2.10;;;;;;;3.18;100.00;98679.13;5134254;28;20035;-65
2021/12/08 00:19:47;;;;;;;3.30;2.43;;;;;;;3.16;100.00;98671.44;5138823;28;20031;-62
2021/12/08 00:22:12;;;;;;;2.93;2.20;;;;;;;3.08;100.00;98668.66;5136544;28;20059;-62
2021/12/08 00:24:39;;;;;;;2.87;2.07;;;;;;;3.19;100.00;98688.63;5136806;28;20023;-65
2021/12/08 00:27:05;;;;;;;2.70;2.00;;;;;;;3.23;100.00;98690.00;5138401;27;20068;-65
2021/12/08 00:29:30;;;;;;;3.57;2.43;;;;;;;3.16;100.00;98679.28;5139880;28;20015;-63
2021/12/08 00:31:56;;;;;;;4.03;2.30;;;;;;;3.14;100.00;98689.06;5142539;27;20038;-62
2021/12/08 00:34:22;;;;;;;4.17;2.30;;;;;;;3.13;100.00;98695.25;5136539;27;20016;-63
2021/12/08 00:36:50;;;;;;;3.30;2.00;;;;;;;3.15;100.00;98689.88;5134327;28;20106;-65
2021/12/08 00:39:15;;;;;;;3.70;2.20;;;;;;;3.24;100.00;98693.44;5136600;28;20038;-65
2021/12/08 00:41:41;;;;;;;3.27;1.93;;;;;;;3.30;100.00;98700.72;5141747;28;20225;-62
2021/12/08 00:44:07;;;;;;;2.90;1.90;;;;;;;3.25;100.00;98690.69;5139219;28;20075;-62
2021/12/08 00:46:33;;;;;;;3.30;2.40;;;;;;;3.25;100.00;98700.31;5138114;28;20325;-65
2021/12/08 00:48:59;;;;;;;3.67;2.40;;;;;;;3.19;100.00;98694.69;5142006;28;20019;-63
2021/12/08 00:51:24;;;;;;;3.33;2.30;;;;;;;3.12;100.00;98705.81;5140022;28;20343;-63
2021/12/08 00:53:50;;;;;;;3.17;2.40;;;;;;;3.06;100.00;98703.78;5136305;28;20051;-62
2021/12/08 00:56:16;;;;;;;3.77;2.30;;;;;;;3.09;100.00;98709.56;5136785;28;20039;-62
2021/12/08 00:58:42;;;;;;;4.17;2.33;;;;;;;3.13;100.00;98713.56;5134188;28;20062;-62
2021/12/08 01:01:08;;;;;;;2.40;2.00;;;;;;;3.20;100.00;98717.28;5135625;27;20039;-65
2021/12/08 01:03:36;;;;;;;3.17;1.97;;;;;;;3.25;100.00;98716.03;5135114;27;20031;-65
2021/12/08 01:06:04;;;;;;;5.03;2.37;;;;;;;3.19;100.00;98718.25;5138154;27;20039;-62
2021/12/08 01:08:31;;;;;;;3.60;2.20;;;;;;;3.18;100.00;98708.75;5140176;27;20102;-62
2021/12/08 01:11:02;;;;;;;3.17;2.03;;;;;;;3.30;100.00;98716.44;5122179;27;20102;-62
2021/12/08 01:13:28;;;;;;;3.53;2.37;;;;;;;3.28;100.00;98713.94;5144916;27;20023;-65
2021/12/08 01:15:57;;;;;;;2.80;1.90;;;;;;;3.27;100.00;98698.41;5142045;27;20039;-62
2021/12/08 01:18:23;;;;;;;3.43;2.40;;;;;;;3.31;100.00;98711.06;5139454;27;20035;-65
2021/12/08 01:20:50;;;;;;;3.53;2.50;;;;;;;3.36;100.00;98701.00;5137884;27;20038;-67
2021/12/08 01:23:17;;;;;;;4.00;2.37;;;;;;;3.30;100.00;98693.72;5143202;27;20313;-62
2021/12/08 01:25:43;;;;;;;4.40;2.30;;;;;;;3.39;100.00;98708.56;5138308;27;20031;-62
2021/12/08 01:28:09;;;;;;;2.83;2.20;;;;;;;3.45;100.00;98700.13;5143341;27;20102;-65
2021/12/08 01:30:35;;;;;;;3.00;2.30;;;;;;;3.46;100.00;98708.81;5144842;27;20038;-65
2021/12/08 01:33:01;;;;;;;2.93;1.97;;;;;;;3.36;100.00;98708.00;5120855;27;20330;-65
2021/12/08 01:35:26;;;;;;;3.50;2.20;;;;;;;3.37;100.00;98705.25;5141912;27;20032;-65
2021/12/08 01:37:52;;;;;;;3.37;2.40;;;;;;;3.42;100.00;98702.22;5137756;27;20055;-62
2021/12/08 01:40:18;;;;;;;3.23;2.27;;;;;;;3.43;100.00;98709.09;5143001;27;20035;-63
2021/12/08 01:42:47;;;;;;;2.57;2.00;;;;;;;3.47;100.00;98713.91;5144447;27;20031;-65
2021/12/08 01:48:07;;;;;;;4.00;2.53;;;;;;;3.48;100.00;98714.72;5139378;27;20254;-62
2021/12/08 01:50:34;;;;;;;3.00;2.33;;;;;;;3.52;100.00;98709.06;5140761;27;20027;-65
2021/12/08 01:53:00;;;;;;;2.20;2.00;;;;;;;3.46;100.00;98714.88;5138857;27;20055;-63
2021/12/08 01:55:26;;;;;;;3.23;1.87;;;;;;;3.53;100.00;98713.34;5142250;27;20092;-63
2021/12/08 01:57:51;;;;;;;3.97;2.30;;;;;;;3.43;100.00;98714.34;5144184;27;20038;-62
2021/12/08 02:00:27;;;;;;;4.07;2.20;;;;;;;3.56;100.00;98725.31;5139100;27;20019;-62
2021/12/08 02:02:53;;;;;;;3.00;2.20;;;;;;;3.42;100.00;98720.53;5124449;28;20043;-65
2021/12/08 02:05:18;;;;;;;3.30;1.97;;;;;;;3.51;99.92;98719.69;5123334;27;20100;-62
2021/12/08 02:07:44;;;;;;;2.97;2.30;;;;;;;3.50;100.00;98734.56;5137535;27;20081;-62
2021/12/08 02:10:10;;;;;;;2.87;2.17;;;;;;;3.58;100.00;98733.03;5137441;27;20062;-65
2021/12/08 02:12:40;;;;;;;3.33;2.47;;;;;;;3.57;99.52;98731.38;5134477;27;20023;-62
2021/12/08 02:15:08;;;;;;;3.57;2.00;;;;;;;3.54;99.46;98742.94;5136153;27;20206;-63
2021/12/08 02:17:33;;;;;;;3.60;2.30;;;;;;;3.40;99.98;98740.78;5143844;27;20051;-63
2021/12/08 02:20:00;;;;;;;3.40;2.30;;;;;;;3.48;99.80;98746.97;5141723;27;20039;-65
2021/12/08 02:22:26;;;;;;;3.50;2.27;;;;;;;3.73;98.31;98748.13;5139462;27;20038;-65
2021/12/08 02:24:51;;;;;;;4.57;2.10;;;;;;;3.57;98.79;98744.47;5141894;27;20039;-65
2021/12/08 02:27:17;;;;;;;2.97;1.97;;;;;;;3.59;98.77;98747.75;5143453;27;20018;-65
2021/12/08 02:29:51;;;;;;;3.40;2.47;;;;;;;3.70;98.16;98763.28;5140457;27;20367;-63
2021/12/08 02:48:29;;;;;;;3.80;2.23;;;;;;;3.91;96.78;98763.09;5134373;27;20034;-63
2021/12/08 02:50:56;;;;;;;3.00;2.00;;;;;;;3.80;96.23;98777.19;5121967;27;20332;-63
2021/12/08 02:53:22;;;;;;;8.77;3.10;;;;;;;3.83;96.25;98775.09;5136568;27;20027;-65
2021/12/08 02:55:48;;;;;;;3.40;2.00;;;;;;;3.85;96.24;98773.16;5143743;27;20034;-65
2021/12/08 02:58:15;;;;;;;3.30;2.20;;;;;;;3.88;94.84;98777.28;5142996;27;20019;-62
2021/12/08 03:00:47;;;;;;;3.43;2.13;;;;;;;3.89;95.95;98791.22;5139860;27;20042;-65
2021/12/08 03:03:13;;;;;;;4.10;2.30;;;;;;;3.89;94.84;98791.22;5143415;27;20075;-65
2021/12/08 03:05:39;;;;;;;3.60;2.30;;;;;;;3.91;94.64;98799.75;5138067;27;20092;-62
2021/12/08 03:08:07;;;;;;;3.90;2.63;;;;;;;3.85;94.36;98793.28;5137002;27;20050;-63
2021/12/08 03:10:38;;;;;;;5.17;2.23;;;;;;;3.78;94.65;98800.88;5135853;27;20132;-62
2021/12/08 03:13:04;;;;;;;2.50;2.20;;;;;;;3.81;94.81;98799.78;5139713;27;20274;-63
2021/12/08 03:15:30;;;;;;;4.70;3.13;;;;;;;4.02;93.43;98810.88;5142629;27;20337;-63
2021/12/08 03:17:55;;;;;;;3.80;2.53;;;;;;;3.91;93.37;98813.66;5139027;27;20049;-65
2021/12/08 03:20:37;;;;;;;5.80;3.00;;;;;;;4.04;93.71;98810.72;5139960;27;20042;-62
2021/12/08 03:23:03;;;;;;;3.83;2.97;;;;;;;3.99;93.83;98805.94;5138984;27;20042;-65
2021/12/08 03:25:35;;;;;;;4.50;2.80;;;;;;;3.98;92.64;98813.94;5135818;27;20057;-63
2021/12/08 03:28:05;;;;;;;6.50;2.80;;;;;;;3.92;91.90;98822.34;5116261;28;20334;-63
2021/12/08 03:30:38;;;;;;;3.83;2.70;;;;;;;4.09;92.47;98824.22;5132115;27;20050;-65
2021/12/08 03:33:04;;;;;;;3.17;2.67;;;;;;;4.04;92.51;98824.66;5141135;27;20058;-63
2021/12/08 03:35:29;;;;;;;4.90;2.90;;;;;;;4.00;93.34;98833.78;5143295;27;20031;-65
2021/12/08 03:37:55;;;;;;;4.47;2.67;;;;;;;3.93;92.77;98832.69;5141482;27;20031;-65
2021/12/08 03:40:23;;;;;;;4.37;2.70;;;;;;;3.84;92.60;98831.75;5134984;27;20151;-63
2021/12/08 03:42:51;;;;;;;4.33;2.30;;;;;;;3.91;92.82;98825.94;5135626;27;20039;-62
2021/12/08 03:45:33;;;;;;;4.00;3.00;;;;;;;3.85;92.58;98828.16;5139821;27;20278;-62
2021/12/08 03:48:03;;;;;;;4.77;2.70;;;;;;;3.98;92.31;98845.34;5142411;27;20027;-62
2021/12/08 03:50:35;;;;;;;3.80;2.70;;;;;;;4.06;91.84;98838.44;5137008;27;20035;-62
2021/12/08 03:53:01;;;;;;;3.57;2.53;;;;;;;3.94;91.58;98836.97;5142386;27;20246;-65
2021/12/08 03:55:26;;;;;;;4.77;3.20;;;;;;;3.89;91.18;98840.97;5140004;27;20041;-64
2021/12/08 03:57:52;;;;;;;3.83;2.80;;;;;;;3.92;91.61;98857.22;5135468;27;20038;-65
2021/12/08 04:00:22;;;;;;;4.73;3.17;;;;;;;3.97;91.69;98855.00;5136385;27;20065;-65
2021/12/08 04:02:47;;;;;;;5.63;3.37;;;;;;;4.16;90.67;98856.75;5138809;27;20037;-62
2021/12/08 04:05:19;;;;;;;6.80;3.00;;;;;;;4.01;90.74;98858.16;5141852;27;20059;-62
2021/12/08 04:07:46;;;;;;;4.77;3.23;;;;;;;3.98;91.59;98854.03;5136685;27;20329;-62
2021/12/08 04:10:19;;;;;;;4.47;3.23;;;;;;;4.01;90.53;98866.84;5115292;28;20051;-65
2021/12/08 04:12:48;;;;;;;5.17;3.47;;;;;;;4.03;90.67;98870.16;5121131;28;20050;-62
2021/12/08 04:15:15;;;;;;;3.73;3.03;;;;;;;3.97;89.79;98864.66;5131736;28;20183;-63
2021/12/08 04:17:45;;;;;;;6.73;3.63;;;;;;;3.96;90.09;98860.38;5134640;27;20034;-63
2021/12/08 04:20:20;;;;;;;6.83;3.87;;;;;;;4.07;89.67;98871.53;5135884;28;20035;-65
2021/12/08 04:22:50;;;;;;;7.40;3.47;;;;;;;4.09;90.32;98874.00;5136395;28;20043;-65
2021/12/08 04:25:19;;;;;;;5.57;3.80;;;;;;;4.19;89.43;98866.97;5135326;28;20070;-63
2021/12/08 04:27:46;;;;;;;5.33;3.30;;;;;;;4.25;88.73;98873.44;5134434;28;20091;-65
2021/12/08 04:30:17;;;;;;;6.23;4.30;;;;;;;4.24;88.32;98874.41;5132637;28;20039;-63
2021/12/08 04:32:43;;;;;;;5.68;3.78;;;;;;;4.25;88.19;98869.03;5132696;27;20038;-62
2021/12/08 04:35:11;;;;;;;8.83;4.97;;;;;;;4.39;88.28;98871.16;5134081;28;20094;-63
2021/12/08 04:37:44;;;;;;;7.57;4.15;;;;;;;4.36;86.98;98866.22;5135843;28;20046;-63
2021/12/08 04:40:26;;;;;;;4.47;3.43;;;;;;;4.43;86.64;98875.16;5138646;27;20256;-65
2021/12/08 04:43:07;;;;;;;10.57;5.03;;;;;;;4.37;86.88;98874.91;5139881;27;20047;-65
2021/12/08 04:45:49;;;;;;;9.07;5.20;;;;;;;4.39;85.72;98873.78;5118770;27;20077;-63
2021/12/08 05:06:49;;;;;;;9.37;5.70;;;;;;;4.34;85.99;98909.25;5140024;27;20027;-63
2021/12/08 05:09:26;;;;;;;13.67;6.43;;;;;;;4.52;84.24;98911.97;5137106;27;20055;-65
2021/12/08 05:12:05;;;;;;;11.83;5.63;;;;;;;4.29;85.60;98917.56;5139629;27;20031;-65
2021/12/08 05:14:41;;;;;;;8.60;5.47;;;;;;;4.38;84.99;98918.50;5126028;27;20137;-65
2021/12/08 05:17:13;;;;;;;10.77;5.13;;;;;;;4.32;85.53;98919.88;5144711;27;20038;-62
2021/12/08 05:19:41;;;;;;;11.30;6.70;;;;;;;4.36;85.12;98907.31;5136182;27;20027;-67
2021/12/08 05:22:32;;;;;;;9.13;5.70;;;;;;;4.40;85.42;98921.78;5137519;27;20099;-65
2021/12/08 05:25:01;;;;;;;12.60;6.57;;;;;;;4.26;85.15;98915.22;5135475;27;20259;-65
2021/12/08 05:27:33;;;;;;;11.17;5.90;;;;;;;4.22;85.24;98926.13;5138683;27;20090;-63
2021/12/08 05:30:10;;;;;;;12.33;6.37;;;;;;;4.24;85.05;98914.53;5139829;27;20068;-62
2021/12/08 05:32:36;;;;;;;13.07;6.73;;;;;;;4.14;85.71;98919.78;5140990;27;20027;-65
2021/12/08 05:35:04;;;;;;;12.37;6.93;;;;;;;4.23;85.42;98931.22;5136083;27;20058;-63
2021/12/08 05:37:30;;;;;;;13.70;7.80;;;;;;;4.18;85.70;98937.84;5138185;27;20064;-65
2021/12/08 05:39:56;;;;;;;14.93;7.80;;;;;;;4.26;85.17;98944.03;5138273;27;20278;-65
2021/12/08 05:42:27;;;;;;;13.27;7.80;;;;;;;4.15;84.70;98933.69;5138206;27;20372;-63
2021/12/08 05:44:52;;;;;;;15.37;7.90;;;;;;;4.18;84.81;98937.84;5137547;27;20038;-65
2021/12/08 05:47:26;;;;;;;11.47;6.80;;;;;;;4.27;84.31;98943.06;5138313;27;20031;-63
2021/12/08 05:49:53;;;;;;;15.88;8.30;;;;;;;4.17;84.51;98947.50;5135645;27;20045;-63
2021/12/08 05:52:19;;;;;;;15.67;8.33;;;;;;;4.11;84.38;98943.63;5136867;27;20072;-63
2021/12/08 05:54:47;;;;;;;17.23;8.47;;;;;;;4.19;83.73;98953.44;5138170;27;20039;-62
2021/12/08 05:57:17;;;;;;;15.80;8.13;;;;;;;4.21;84.00;98953.28;5142060;27;20034;-65
2021/12/08 05:59:45;;;;;;;20.30;8.77;;;;;;;4.19;84.42;98950.81;5144318;27;20027;-63
2021/12/08 06:02:28;;;;;;;17.20;9.73;;;;;;;4.37;84.41;98962.22;5138665;27;20360;-65
2021/12/08 06:04:53;;;;;;;18.10;9.47;;;;;;;4.39;84.00;98969.94;5135305;27;20209;-63
2021/12/08 06:07:22;;;;;;;16.90;8.38;;;;;;;4.32;84.07;98972.31;5141848;27;20035;-63
2021/12/08 06:09:54;;;;;;;16.97;8.90;;;;;;;4.38;83.62;98984.84;5125668;27;20128;-65
2021/12/08 06:12:21;;;;;;;16.73;9.13;;;;;;;4.35;83.70;98984.31;5138316;27;20027;-63
2021/12/08 06:14:53;;;;;;;16.03;9.13;;;;;;;4.43;84.18;98992.28;5144710;27;20046;-65
2021/12/08 06:17:19;;;;;;;18.47;9.67;;;;;;;4.36;84.02;98986.78;5141892;27;20035;-65
2021/12/08 06:19:47;;;;;;;21.07;10.63;;;;;;;4.40;84.03;98995.19;5136524;27;20046;-65
2021/12/08 06:22:14;;;;;;;19.13;10.13;;;;;;;4.35;84.21;98998.22;5137638;27;20313;-63
2021/12/08 06:24:40;;;;;;;22.60;11.27;;;;;;;4.39;85.16;99002.22;5119488;27;20081;-63
2021/12/08 06:27:07;;;;;;;22.33;11.83;;;;;;;4.37;84.69;99005.97;5136104;27;20035;-62
2021/12/08 06:29:33;;;;;;;21.00;10.33;;;;;;;4.47;84.30;99006.75;5137603;27;20035;-65
2021/12/08 06:32:01;;;;;;;21.00;11.30;;;;;;;4.59;84.16;99016.13;5137053;27;20035;-65
2021/12/08 06:34:28;;;;;;;31.80;13.53;;;;;;;4.61;83.14;99011.56;5136168;27;20043;-63
2021/12/08 06:37:07;;;;;;;20.63;11.30;;;;;;;4.52;84.55;99011.59;5139709;27;20087;-62
2021/12/08 06:39:44;;;;;;;19.10;11.67;;;;;;;4.58;84.06;99014.47;5143364;27;20240;-63
2021/12/08 06:42:19;;;;;;;19.70;11.33;;;;;;;4.59;83.35;99021.34;5138695;27;20038;-65
2021/12/08 06:44:47;;;;;;;19.30;11.07;;;;;;;4.58;83.72;99018.88;5138061;27;20110;-65
2021/12/08 06:47:20;;;;;;;22.27;11.33;;;;;;;4.45;84.03;99022.63;5136079;27;20035;-65
2021/12/08 06:49:48;;;;;;;19.10;11.57;;;;;;;4.48;84.58;99027.59;5135769;27;20106;-65
2021/12/08 06:52:18;;;;;;;22.70;11.63;;;;;;;4.65;83.79;99039.16;5136674;27;20065;-63
2021/12/08 06:54:49;;;;;;;22.60;11.63;;;;;;;4.68;84.11;99044.09;5136955;27;20074;-65
2021/12/08 06:57:23;;;;;;;24.03;11.97;;;;;;;4.73;84.25;99034.03;5135497;27;20066;-63
2021/12/08 07:00:38;;;;;;;26.23;11.68;;;;;;;4.88;83.50;99047.50;5136104;27;20035;-63
2021/12/08 07:05:26;;;;;;;22.43;12.10;;;;;;;4.93;83.52;99040.03;5137910;27;20062;-65
2021/12/08 07:07:55;;;;;;;22.37;12.40;;;;;;;5.00;83.43;99042.91;5142801;27;20027;-65
2021/12/08 07:10:25;;;;;;;23.83;12.50;;;;;;;4.96;83.26;99058.13;5139404;27;20031;-63
2021/12/08 07:13:22;;;;;;;23.67;12.13;;;;;;;5.00;82.84;99048.16;5118821;27;20034;-65
2021/12/08 07:15:53;;;;;;;29.33;15.60;;;;;;;5.02;83.34;99059.34;5139127;27;20086;-65
2021/12/08 07:18:27;;;;;;;26.93;12.90;;;;;;;5.07;83.31;99054.47;5138932;27;20066;-63
2021/12/08 07:20:57;;;;;;;28.83;14.70;;;;;;;5.16;83.04;99069.38;5137037;27;20050;-62
2021/12/08 07:23:28;;;;;;;33.67;14.97;;;;;;;5.07;83.02;99070.22;5138163;27;20103;-63
2021/12/08 07:25:56;;;;;;;33.27;14.87;;;;;;;5.11;83.36;99067.16;5137326;27;20027;-63
2021/12/08 07:28:24;;;;;;;35.00;15.97;;;;;;;5.16;82.92;99069.38;5135633;27;20043;-65
2021/12/08 07:31:04;;;;;;;37.08;16.20;;;;;;;5.05;82.82;99078.25;5139117;27;20035;-62
2021/12/08 07:33:30;;;;;;;33.33;14.70;;;;;;;4.95;83.09;99064.31;5142339;27;20047;-62
2021/12/08 07:35:59;;;;;;;28.83;13.97;;;;;;;5.13;82.33;99080.97;5138029;27;20039;-62
2021/12/08 07:38:29;;;;;;;29.77;14.63;;;;;;;4.95;82.37;99066.94;5136716;27;20038;-65
2021/12/08 07:41:13;;;;;;;29.97;14.93;;;;;;;5.06;82.38;99077.28;5135682;27;20317;-63
2021/12/08 07:43:45;;;;;;;30.93;14.97;;;;;;;5.09;82.38;99074.38;5140228;27;20039;-65
2021/12/08 07:46:15;;;;;;;32.53;15.33;;;;;;;5.02;81.79;99088.19;5142114;27;20039;-65
2021/12/08 07:48:49;;;;;;;31.85;15.02;;;;;;;5.18;82.69;99077.09;5126699;27;20035;-62
2021/12/08 07:51:26;;;;;;;27.80;13.03;;;;;;;5.02;82.75;99094.28;5143777;27;20058;-63
2021/12/08 07:53:52;;;;;;;27.15;11.98;;;;;;;5.09;82.55;99084.84;5143701;27;20035;-63
2021/12/08 07:56:20;;;;;;;27.77;14.20;;;;;;;5.25;82.60;99091.31;5143045;27;20242;-63
2021/12/08 07:58:52;;;;;;;26.20;12.70;;;;;;;5.22;81.44;99081.13;5143661;27;20035;-65
2021/12/08 08:01:23;;;;;;;25.90;14.40;;;;;;;5.42;82.32;99094.00;5143406;27;20102;-63
2021/12/08 08:03:49;;;;;;;27.00;14.57;;;;;;;5.43;82.02;99103.53;5143034;27;20035;-62
2021/12/08 08:06:24;;;;;;;31.07;13.70;;;;;;;5.50;81.37;99102.97;5143853;27;20084;-65
2021/12/08 08:08:50;;;;;;;32.85;15.27;;;;;;;5.73;81.60;99097.19;5143405;27;20083;-62
2021/12/08 08:11:24;;;;;;;29.42;13.80;;;;;;;5.54;80.09;99091.19;5143188;27;20201;-62
2021/12/08 08:13:50;;;;;;;32.05;14.48;;;;;;;5.70;80.94;99107.16;5142574;27;20042;-65
2021/12/08 08:16:19;;;;;;;29.07;14.87;;;;;;;5.73;80.34;99112.09;5143485;27;20190;-66
2021/12/08 08:18:51;;;;;;;28.67;15.60;;;;;;;5.90;80.50;99118.41;5142433;28;20345;-65
2021/12/08 08:21:21;;;;;;;28.75;15.45;;;;;;;5.83;80.73;99112.88;5142822;27;20030;-65
2021/12/08 08:23:46;;;;;;;29.27;14.47;;;;;;;5.88;79.94;99117.69;5142385;27;20035;-63
2021/12/08 08:26:13;;;;;;;28.50;14.40;;;;;;;5.95;79.61;99118.78;5161823;27;20041;-63
2021/12/08 08:28:43;;;;;;;27.90;13.57;;;;;;;5.88;78.89;99121.16;5162847;27;20050;-65
2021/12/08 08:31:21;;;;;;;24.42;12.60;;;;;;;5.83;77.75;99127.81;5163032;27;20038;-65
2021/12/08 08:33:48;;;;;;;28.35;15.00;;;;;;;6.03;78.45;99127.59;5162876;27;20097;-65
2021/12/08 08:36:23;;;;;;;29.42;14.57;;;;;;;6.22;78.20;99129.25;5163178;27;20074;-63
2021/12/08 08:38:59;;;;;;;26.17;13.17;;;;;;;6.23;77.92;99124.81;5162973;27;20030;-63
2021/12/08 08:41:31;;;;;;;25.33;11.70;;;;;;;6.30;77.08;99132.00;5162557;27;20030;-65
2021/12/08 08:43:59;;;;;;;23.23;12.65;;;;;;;6.42;76.74;99116.00;5162649;27;20030;-65
2021/12/08 08:46:32;;;;;;;29.58;14.23;;;;;;;6.61;75.70;99116.66;5163143;27;20035;-63
2021/12/08 08:49:03;;;;;;;29.50;14.40;;;;;;;6.71;75.89;99125.28;5162888;27;20050;-65
2021/12/08 08:51:39;;;;;;;27.15;13.48;;;;;;;6.90;75.34;99121.63;5162328;27;20114;-65
2021/12/08 08:54:23;;;;;;;24.02;12.63;;;;;;;6.79;73.50;99123.69;5162527;27;20037;-62
2021/12/08 08:56:58;;;;;;;23.70;12.75;;;;;;;6.72;74.24;99121.69;5162720;27;20043;-63
2021/12/08 08:59:28;;;;;;;26.52;13.10;;;;;;;6.64;75.09;99121.59;5162680;27;20037;-62
2021/12/08 09:01:56;;;;;;;24.27;13.27;;;;;;;6.65;75.90;99123.25;5162492;27;20026;-62
2021/12/08 09:04:30;;;;;;;31.42;15.48;;;;;;;6.64;74.68;99118.97;5152165;27;20023;-62
2021/12/08 09:07:02;;;;;;;28.77;13.50;;;;;;;6.61;75.20;99124.53;5134119;27;20320;-65
2021/12/08 09:09:34;;;;;;;26.67;13.68;;;;;;;6.45;75.64;99124.41;5134339;27;20028;-63
2021/12/08 09:12:03;;;;;;;30.38;15.27;;;;;;;6.63;74.86;99112.06;5115591;27;20079;-65
2021/12/08 09:14:41;;;;;;;30.30;13.70;;;;;;;6.68;76.75;99116.88;5132174;27;20088;-65
2021/12/08 09:17:09;;;;;;;29.58;14.43;;;;;;;6.81;76.45;99106.78;5133925;27;20336;-63
2021/12/08 09:19:41;;;;;;;26.77;14.10;;;;;;;6.68;74.86;99116.88;5133881;27;20035;-63
2021/12/08 09:22:20;;;;;;;27.88;14.68;;;;;;;6.76;75.67;99111.66;5116367;27;20367;-65
2021/12/08 09:24:54;;;;;;;28.67;14.68;;;;;;;6.66;75.84;99105.66;5133101;27;20272;-63
2021/12/08 09:27:31;;;;;;;;;;;;;;;6.69;76.25;99108.00;5140005;27;20027;-62
2021/12/08 09:30:06;;;;;;;34.55;15.60;;;;;;;6.69;76.09;99106.19;5138080;27;19929;-62
2021/12/08 09:32:47;;;;;;;30.58;14.25;;;;;;;6.71;75.98;99106.03;5121470;27;20019;-65
2021/12/08 09:35:30;;;;;;;33.03;16.15;;;;;;;6.77;76.76;99099.34;5139391;27;20031;-65
2021/12/08 09:38:01;;;;;;;31.08;15.85;;;;;;;6.92;76.01;99096.00;5137856;27;20038;-66
2021/12/08 09:40:47;;;;;;;32.97;15.70;;;;;;;6.70;76.22;99078.91;5136386;27;20328;-65
2021/12/08 09:43:25;;;;;;;24.83;12.63;;;;;;;6.71;73.59;99082.38;5137461;27;20035;-62
2021/12/08 09:45:58;;;;;;;28.90;13.63;;;;;;;6.80;74.15;99088.50;5136022;27;20043;-62
2021/12/08 09:48:29;;;;;;;25.70;12.47;;;;;;;6.93;73.43;99083.66;5136147;27;20031;-62
2021/12/08 09:50:57;;;;;;;27.50;12.50;;;;;;;6.93;73.95;99073.13;5136898;27;20849;-63
2021/12/08 09:53:23;;;;;;;27.38;13.25;;;;;;;7.01;73.77;99078.44;5136921;27;20111;-63
2021/12/08 09:55:51;;;;;;;26.58;13.85;;;;;;;7.07;73.16;99072.56;5135973;27;20027;-65
2021/12/08 09:58:17;;;;;;;25.55;13.40;;;;;;;7.15;73.74;99069.97;5137830;27;20060;-62
2021/12/08 10:00:46;;;;;;;21.73;11.35;;;;;;;7.07;72.73;99072.56;5135762;27;20098;-65
2021/12/08 10:03:13;;;;;;;23.30;12.27;;;;;;;7.16;73.31;99090.06;5138632;27;20039;-65
2021/12/08 10:05:41;;;;;;;24.40;12.60;;;;;;;7.21;73.88;99065.88;5137549;27;20032;-65
2021/12/08 10:08:08;;;;;;;25.42;11.68;;;;;;;7.31;72.68;99077.16;5135162;27;20254;-63
2021/12/08 10:10:35;;;;;;;23.38;12.82;;;;;;;7.49;73.26;99077.06;5137601;27;20019;-63
2021/12/08 10:13:02;;;;;;;20.48;10.07;;;;;;;7.47;71.41;99071.13;5136359;27;20019;-62
2021/12/08 10:15:27;;;;;;;22.33;11.07;;;;;;;7.36;70.93;99062.53;5137591;27;20336;-63
2021/12/08 10:17:55;;;;;;;22.63;12.15;;;;;;;7.33;72.04;99067.28;5135893;27;20015;-65
2021/12/08 10:20:23;;;;;;;23.88;11.52;;;;;;;7.39;73.03;99058.75;5137776;27;20115;-65
2021/12/08 10:23:10;;;;;;;22.08;11.18;;;;;;;7.33;71.77;99064.66;5135343;27;20337;-62
2021/12/08 10:25:40;;;;;;;20.60;11.07;;;;;;;7.28;72.12;99064.28;5137010;27;20275;-63
2021/12/08 10:28:14;;;;;;;21.25;11.65;;;;;;;7.28;72.09;99064.28;5135488;27;20228;-65
2021/12/08 10:31:06;;;;;;;24.15;12.43;;;;;;;7.35;72.40;99062.69;5136440;27;20076;-65
2021/12/08 10:33:37;;;;;;;20.40;10.70;;;;;;;7.44;70.46;99066.19;5134422;27;20283;-63
2021/12/08 10:36:17;;;;;;;19.70;10.27;;;;;;;7.41;70.46;99061.22;5135568;27;20027;-65
2021/12/08 10:38:43;;;;;;;17.10;9.70;;;;;;;7.40;70.76;99065.69;5137293;27;20023;-65
2021/12/08 10:41:08;;;;;;;21.08;10.30;;;;;;;7.34;70.60;99069.78;5135239;27;20030;-65
2021/12/08 10:43:34;;;;;;;18.90;10.63;;;;;;;7.40;71.37;99065.69;5134193;27;20105;-65
2021/12/08 10:46:00;;;;;;;20.50;10.50;;;;;;;7.33;71.36;99068.13;5135622;27;20180;-63
2021/12/08 10:48:35;;;;;;;19.92;10.43;;;;;;;7.32;71.81;99068.28;5137275;27;20337;-63
2021/12/08 10:56:40;;;;;;;20.52;11.88;;;;;;;7.50;70.98;99069.00;5136710;27;20322;-65
2021/12/08 10:59:06;;;;;;;21.20;11.75;;;;;;;7.51;70.47;99067.19;5136323;27;20043;-65
2021/12/08 11:01:31;;;;;;;19.98;10.75;;;;;;;7.48;70.13;99062.25;5136332;27;20317;-63
2021/12/08 11:04:03;;;;;;;18.52;11.18;;;;;;;7.54;71.84;99066.88;5135968;27;20206;-65
2021/12/08 11:06:36;;;;;;;22.92;11.82;;;;;;;7.64;70.50;99059.66;5136232;27;20350;-63
2021/12/08 11:09:05;;;;;;;19.48;10.05;;;;;;;7.56;69.33;99065.75;5135493;27;20070;-65
2021/12/08 11:11:33;;;;;;;19.38;10.50;;;;;;;7.72;70.18;99067.59;5134737;27;20023;-63
2021/12/08 11:14:01;;;;;;;17.13;9.68;;;;;;;7.72;69.73;99072.88;5135665;27;20031;-63
2021/12/08 11:16:29;;;;;;;17.83;9.07;;;;;;;7.63;68.44;99066.75;5137399;27;20072;-65
2021/12/08 11:18:59;;;;;;;17.17;10.18;;;;;;;7.65;69.49;99080.59;5134299;27;20309;-65
2021/12/08 11:21:33;;;;;;;17.73;10.30;;;;;;;7.74;68.73;99073.53;5135249;27;20076;-63
2021/12/08 11:24:00;;;;;;;16.25;9.77;;;;;;;7.76;69.04;99066.28;5134663;27;20032;-65
2021/12/08 11:26:37;;;;;;;19.15;10.30;;;;;;;7.85;69.11;99067.13;5136285;27;20034;-65
2021/12/08 11:29:16;;;;;;;19.63;11.00;;;;;;;7.91;69.59;99062.03;5135088;27;21351;-63
2021/12/08 11:31:52;;;;;;;24.20;11.23;;;;;;;7.80;68.39;99067.63;5133670;27;20317;-65
2021/12/08 11:34:20;;;;;;;16.67;9.48;;;;;;;7.68;68.19;99063.63;5134321;27;20051;-65
2021/12/08 11:36:52;;;;;;;23.63;11.25;;;;;;;7.68;68.19;99066.28;5135313;27;20031;-65
2021/12/08 11:39:26;;;;;;;16.08;9.05;;;;;;;7.65;68.62;99067.41;5136578;27;20035;-65
2021/12/08 11:41:58;;;;;;;20.65;10.45;;;;;;;7.67;68.25;99075.97;5134853;27;20035;-65
2021/12/08 11:44:30;;;;;;;18.25;10.75;;;;;;;7.69;69.61;99071.38;5133962;27;20030;-63
2021/12/08 11:47:05;;;;;;;17.02;9.32;;;;;;;7.80;68.44;99077.34;5134248;27;20035;-63
2021/12/08 11:49:31;;;;;;;17.75;10.38;;;;;;;7.75;68.12;99082.25;5135699;27;20065;-65
2021/12/08 11:52:13;;;;;;;22.83;10.13;;;;;;;7.67;68.36;99086.53;5142396;27;20329;-65
2021/12/08 11:54:41;;;;;;;20.27;10.52;;;;;;;7.71;69.14;99081.75;5142941;27;20086;-63
2021/12/08 11:57:13;;;;;;;20.92;11.65;;;;;;;7.72;69.48;99083.41;5142236;27;20189;-63
2021/12/08 11:59:46;;;;;;;17.65;9.77;;;;;;;7.87;68.56;99081.81;5142858;27;20031;-63
2021/12/08 12:02:14;;;;;;;19.15;10.38;;;;;;;7.78;67.54;99085.41;5142326;27;20022;-62
2021/12/08 12:04:43;;;;;;;17.35;9.85;;;;;;;7.63;67.99;99092.28;5142208;27;20060;-63
2021/12/08 12:07:15;;;;;;;24.40;11.65;;;;;;;7.69;68.20;99091.63;5142162;27;20102;-63
2021/12/08 12:09:41;;;;;;;21.20;11.40;;;;;;;7.72;68.83;99099.22;5142626;27;20207;-65
2021/12/08 12:12:08;;;;;;;20.27;12.00;;;;;;;7.91;69.00;99095.50;5141956;27;20384;-65
2021/12/08 12:14:33;;;;;;;22.52;12.43;;;;;;;7.91;68.62;99106.88;5142340;27;20061;-65
2021/12/08 12:16:59;;;;;;;17.88;9.80;;;;;;;7.90;67.05;99097.31;5142200;27;20038;-65
2021/12/08 12:19:27;;;;;;;18.90;11.25;;;;;;;7.88;67.31;99101.91;5142356;27;20057;-65
2021/12/08 12:22:07;;;;;;;19.58;9.70;;;;;;;7.87;67.70;99104.72;5142196;27;20060;-63
2021/12/08 12:24:52;;;;;;;22.38;12.73;;;;;;;7.98;68.49;99094.69;5142547;27;20249;-64
2021/12/08 12:27:45;;;;;;;21.75;12.05;;;;;;;7.93;67.34;99094.34;5141874;27;20030;-65
2021/12/08 12:30:27;;;;;;;19.27;11.15;;;;;;;7.86;67.30;99101.25;5142429;27;20103;-65
2021/12/08 12:32:54;;;;;;;20.42;11.05;;;;;;;7.97;67.67;99108.03;5142264;27;20038;-63
2021/12/08 12:35:28;;;;;;;20.90;11.80;;;;;;;7.85;67.73;99111.94;5142254;27;20038;-65